sensor_id;sensor_type;location;lat;lon;timestamp;pressure;altitude;pressure_sealevel;temperature;humidity
28456;BME280;15682;56.742;38.866;2023-02-23T00:01:24;99310.0;;;-16.2;90.7
28456;BME280;15682;56.742;38.866;2023-02-23T00:03:22;99310.0;;;-16.3;90.9
28456;BME280;15682;56.742;38.866;2023-02-23T00:05:22;99310.0;;;-16.3;90.9
28456;BME280;15682;56.742;38.866;2023-02-23T00:07:21;99310.0;;;-16.3;90.9
28456;BME280;15682;56.742;38.866;2023-02-23T00:09:21;99310.0;;;-16.1;90.9
28456;BME280;15682;56.742;38.866;2023-02-23T00:11:21;99310.0;;;-16.1;90.9
28456;BME280;15682;56.742;38.866;2023-02-23T00:13:20;99310.0;;;-16.1;90.8
28456;BME280;15682;56.742;38.866;2023-02-23T00:15:20;99310.0;;;-16.1;90.8
28456;BME280;15682;56.742;38.866;2023-02-23T00:17:19;99310.0;;;-16.1;90.8
28456;BME280;15682;56.742;38.866;2023-02-23T00:19:19;99310.0;;;-16.1;90.8
28456;BME280;15682;56.742;38.866;2023-02-23T00:21:20;99310.0;;;-16.2;90.8
28456;BME280;15682;56.742;38.866;2023-02-23T00:23:18;99310.0;;;-16.3;91.0
28456;BME280;15682;56.742;38.866;2023-02-23T00:25:17;99310.0;;;-16.3;91.0
28456;BME280;15682;56.742;38.866;2023-02-23T00:27:17;99310.0;;;-16.3;91.0
28456;BME280;15682;56.742;38.866;2023-02-23T00:29:19;99310.0;;;-16.3;91.0
28456;BME280;15682;56.742;38.866;2023-02-23T00:31:16;99310.0;;;-16.3;91.0
28456;BME280;15682;56.742;38.866;2023-02-23T00:33:16;99310.0;;;-16.3;91.1
28456;BME280;15682;56.742;38.866;2023-02-23T00:35:15;99310.0;;;-16.3;91.1
28456;BME280;15682;56.742;38.866;2023-02-23T00:37:15;99310.0;;;-16.3;91.1
28456;BME280;15682;56.742;38.866;2023-02-23T00:39:14;99310.0;;;-16.3;91.1
28456;BME280;15682;56.742;38.866;2023-02-23T00:41:15;99310.0;;;-16.2;91.1
28456;BME280;15682;56.742;38.866;2023-02-23T00:43:13;99310.0;;;-16.2;91.1
28456;BME280;15682;56.742;38.866;2023-02-23T00:45:14;99310.0;;;-16.2;91.1
28456;BME280;15682;56.742;38.866;2023-02-23T00:47:13;99310.0;;;-16.2;91.1
28456;BME280;15682;56.742;38.866;2023-02-23T00:49:12;99310.0;;;-16.2;91.1
28456;BME280;15682;56.742;38.866;2023-02-23T00:51:13;99310.0;;;-16.3;91.1
28456;BME280;15682;56.742;38.866;2023-02-23T00:53:11;99310.0;;;-16.3;91.0
28456;BME280;15682;56.742;38.866;2023-02-23T00:55:13;99300.0;;;-16.3;91.0
28456;BME280;15682;56.742;38.866;2023-02-23T00:57:10;99300.0;;;-16.3;91.0
28456;BME280;15682;56.742;38.866;2023-02-23T00:59:11;99310.0;;;-16.3;91.0
28456;BME280;15682;56.742;38.866;2023-02-23T01:01:12;99310.0;;;-16.3;91.0
28456;BME280;15682;56.742;38.866;2023-02-23T01:03:09;99310.0;;;-16.3;91.1
28456;BME280;15682;56.742;38.866;2023-02-23T01:05:09;99310.0;;;-16.5;91.1
28456;BME280;15682;56.742;38.866;2023-02-23T01:07:08;99310.0;;;-16.5;91.1
28456;BME280;15682;56.742;38.866;2023-02-23T01:09:10;99310.0;;;-16.5;91.1
28456;BME280;15682;56.742;38.866;2023-02-23T01:11:09;99310.0;;;-16.5;91.1
28456;BME280;15682;56.742;38.866;2023-02-23T01:13:07;99310.0;;;-16.5;91.1
28456;BME280;15682;56.742;38.866;2023-02-23T01:15:08;99310.0;;;-16.5;91.1
28456;BME280;15682;56.742;38.866;2023-02-23T01:17:06;99310.0;;;-16.5;91.1
28456;BME280;15682;56.742;38.866;2023-02-23T01:19:06;99310.0;;;-16.5;91.1
28456;BME280;15682;56.742;38.866;2023-02-23T01:21:13;99320.0;;;-16.5;91.1
28456;BME280;15682;56.742;38.866;2023-02-23T01:23:05;99320.0;;;-16.5;91.0
28456;BME280;15682;56.742;38.866;2023-02-23T01:25:05;99320.0;;;-16.5;91.0
28456;BME280;15682;56.742;38.866;2023-02-23T01:27:04;99320.0;;;-16.5;91.0
28456;BME280;15682;56.742;38.866;2023-02-23T01:29:05;99320.0;;;-16.5;91.0
28456;BME280;15682;56.742;38.866;2023-02-23T01:31:07;99320.0;;;-16.5;91.0
28456;BME280;15682;56.742;38.866;2023-02-23T01:33:02;99320.0;;;-16.5;90.9
28456;BME280;15682;56.742;38.866;2023-02-23T01:35:03;99320.0;;;-16.5;90.9
28456;BME280;15682;56.742;38.866;2023-02-23T01:37:02;99320.0;;;-16.5;90.9
28456;BME280;15682;56.742;38.866;2023-02-23T01:39:01;99320.0;;;-16.5;90.9
28456;BME280;15682;56.742;38.866;2023-02-23T01:41:01;99320.0;;;-16.5;90.9
28456;BME280;15682;56.742;38.866;2023-02-23T01:43:11;99320.0;;;-16.5;91.0
28456;BME280;15682;56.742;38.866;2023-02-23T01:46:59;99330.0;;;-16.5;91.0
28456;BME280;15682;56.742;38.866;2023-02-23T01:48:59;99330.0;;;-16.6;91.0
28456;BME280;15682;56.742;38.866;2023-02-23T01:51:01;99330.0;;;-16.6;91.0
28456;BME280;15682;56.742;38.866;2023-02-23T01:52:58;99340.0;;;-16.6;90.9
28456;BME280;15682;56.742;38.866;2023-02-23T01:54:57;99340.0;;;-16.6;90.9
28456;BME280;15682;56.742;38.866;2023-02-23T01:57:00;99340.0;;;-16.6;90.9
28456;BME280;15682;56.742;38.866;2023-02-23T01:58:58;99340.0;;;-16.6;90.9
28456;BME280;15682;56.742;38.866;2023-02-23T02:00:57;99340.0;;;-16.6;90.9
28456;BME280;15682;56.742;38.866;2023-02-23T02:02:56;99340.0;;;-16.6;90.8
28456;BME280;15682;56.742;38.866;2023-02-23T02:04:55;99340.0;;;-16.7;90.8
28456;BME280;15682;56.742;38.866;2023-02-23T02:06:55;99340.0;;;-16.7;90.8
28456;BME280;15682;56.742;38.866;2023-02-23T02:08:58;99340.0;;;-16.7;90.8
28456;BME280;15682;56.742;38.866;2023-02-23T02:10:54;99340.0;;;-16.8;90.8
28456;BME280;15682;56.742;38.866;2023-02-23T02:12:55;99340.0;;;-16.9;90.7
28456;BME280;15682;56.742;38.866;2023-02-23T02:14:53;99340.0;;;-16.9;90.7
28456;BME280;15682;56.742;38.866;2023-02-23T02:17:01;99340.0;;;-17.0;90.7
28456;BME280;15682;56.742;38.866;2023-02-23T02:19:13;99340.0;;;-17.1;90.7
28456;BME280;15682;56.742;38.866;2023-02-23T02:21:07;99340.0;;;-17.1;90.7
28456;BME280;15682;56.742;38.866;2023-02-23T02:23:12;99350.0;;;-17.1;90.9
28456;BME280;15682;56.742;38.866;2023-02-23T02:27:01;99360.0;;;-17.1;90.9
28456;BME280;15682;56.742;38.866;2023-02-23T02:29:18;99360.0;;;-17.3;90.9
28456;BME280;15682;56.742;38.866;2023-02-23T02:31:16;99360.0;;;-17.3;90.9
28456;BME280;15682;56.742;38.866;2023-02-23T02:33:07;99360.0;;;-17.3;90.9
28456;BME280;15682;56.742;38.866;2023-02-23T02:35:17;99360.0;;;-17.3;90.9
28456;BME280;15682;56.742;38.866;2023-02-23T02:37:02;99360.0;;;-17.4;90.9
28456;BME280;15682;56.742;38.866;2023-02-23T02:38:53;99370.0;;;-17.4;90.9
28456;BME280;15682;56.742;38.866;2023-02-23T02:40:53;99370.0;;;-17.5;90.9
28456;BME280;15682;56.742;38.866;2023-02-23T02:42:57;99370.0;;;-17.5;91.1
28456;BME280;15682;56.742;38.866;2023-02-23T02:44:53;99370.0;;;-17.5;91.1
28456;BME280;15682;56.742;38.866;2023-02-23T02:46:48;99370.0;;;-17.5;91.1
28456;BME280;15682;56.742;38.866;2023-02-23T02:48:48;99370.0;;;-17.5;91.1
28456;BME280;15682;56.742;38.866;2023-02-23T02:50:49;99370.0;;;-17.4;91.1
28456;BME280;15682;56.742;38.866;2023-02-23T02:52:48;99370.0;;;-17.3;90.8
28456;BME280;15682;56.742;38.866;2023-02-23T02:54:47;99370.0;;;-17.3;90.8
28456;BME280;15682;56.742;38.866;2023-02-23T02:56:44;99370.0;;;-17.3;90.3
28456;BME280;15682;56.742;38.866;2023-02-23T02:58:43;99370.0;;;-17.3;90.3
28456;BME280;15682;56.742;38.866;2023-02-23T03:00:46;99370.0;;;-17.4;90.3
28456;BME280;15682;56.742;38.866;2023-02-23T03:02:42;99370.0;;;-17.4;90.3
28456;BME280;15682;56.742;38.866;2023-02-23T03:04:42;99370.0;;;-17.4;90.3
28456;BME280;15682;56.742;38.866;2023-02-23T03:06:45;99370.0;;;-17.4;90.3
28456;BME280;15682;56.742;38.866;2023-02-23T03:08:47;99370.0;;;-17.4;90.3
28456;BME280;15682;56.742;38.866;2023-02-23T03:10:45;99370.0;;;-17.4;90.3
28456;BME280;15682;56.742;38.866;2023-02-23T03:12:45;99370.0;;;-17.4;90.3
28456;BME280;15682;56.742;38.866;2023-02-23T03:14:47;99370.0;;;-17.4;90.3
28456;BME280;15682;56.742;38.866;2023-02-23T03:16:44;99380.0;;;-17.4;90.3
28456;BME280;15682;56.742;38.866;2023-02-23T03:18:48;99380.0;;;-17.4;90.3
28456;BME280;15682;56.742;38.866;2023-02-23T03:20:44;99380.0;;;-17.3;90.3
28456;BME280;15682;56.742;38.866;2023-02-23T03:22:41;99380.0;;;-17.3;90.8
28456;BME280;15682;56.742;38.866;2023-02-23T03:24:40;99380.0;;;-17.3;90.8
28456;BME280;15682;56.742;38.866;2023-02-23T03:26:40;99390.0;;;-17.3;90.8
28456;BME280;15682;56.742;38.866;2023-02-23T03:28:43;99390.0;;;-17.5;90.9
28456;BME280;15682;56.742;38.866;2023-02-23T03:30:42;99390.0;;;-17.4;90.9
28456;BME280;15682;56.742;38.866;2023-02-23T03:32:40;99390.0;;;-17.4;90.8
28456;BME280;15682;56.742;38.866;2023-02-23T03:34:38;99390.0;;;-17.4;90.8
28456;BME280;15682;56.742;38.866;2023-02-23T03:36:37;99400.0;;;-17.5;90.8
28456;BME280;15682;56.742;38.866;2023-02-23T03:38:38;99400.0;;;-17.5;90.8
28456;BME280;15682;56.742;38.866;2023-02-23T03:40:37;99400.0;;;-17.5;90.8
28456;BME280;15682;56.742;38.866;2023-02-23T03:42:34;99400.0;;;-17.5;90.7
28456;BME280;15682;56.742;38.866;2023-02-23T03:44:36;99400.0;;;-17.5;90.7
28456;BME280;15682;56.742;38.866;2023-02-23T03:46:34;99400.0;;;-17.6;90.7
28456;BME280;15682;56.742;38.866;2023-02-23T03:48:35;99400.0;;;-17.6;90.7
28456;BME280;15682;56.742;38.866;2023-02-23T03:50:36;99400.0;;;-17.5;90.7
28456;BME280;15682;56.742;38.866;2023-02-23T03:52:33;99400.0;;;-17.5;90.7
28456;BME280;15682;56.742;38.866;2023-02-23T03:54:33;99400.0;;;-17.3;90.7
28456;BME280;15682;56.742;38.866;2023-02-23T03:56:32;99400.0;;;-17.3;90.4
28456;BME280;15682;56.742;38.866;2023-02-23T03:58:32;99400.0;;;-17.3;90.4
28456;BME280;15682;56.742;38.866;2023-02-23T04:00:31;99400.0;;;-17.3;90.4
28456;BME280;15682;56.742;38.866;2023-02-23T04:02:30;99400.0;;;-17.5;90.4
28456;BME280;15682;56.742;38.866;2023-02-23T04:04:28;99400.0;;;-17.5;90.4
28456;BME280;15682;56.742;38.866;2023-02-23T04:06:32;99410.0;;;-17.5;90.4
28456;BME280;15682;56.742;38.866;2023-02-23T04:08:31;99410.0;;;-17.3;90.4
28456;BME280;15682;56.742;38.866;2023-02-23T04:10:28;99410.0;;;-17.5;90.4
28456;BME280;15682;56.742;38.866;2023-02-23T04:12:30;99410.0;;;-17.5;90.2
28456;BME280;15682;56.742;38.866;2023-02-23T04:14:29;99410.0;;;-17.5;90.2
28456;BME280;15682;56.742;38.866;2023-02-23T04:16:27;99420.0;;;-17.5;90.2
28456;BME280;15682;56.742;38.866;2023-02-23T04:18:26;99420.0;;;-17.5;90.2
28456;BME280;15682;56.742;38.866;2023-02-23T04:20:26;99420.0;;;-17.6;90.2
28456;BME280;15682;56.742;38.866;2023-02-23T04:22:24;99420.0;;;-17.6;90.3
28456;BME280;15682;56.742;38.866;2023-02-23T04:24:23;99420.0;;;-17.6;90.3
28456;BME280;15682;56.742;38.866;2023-02-23T04:26:22;99420.0;;;-17.6;90.3
28456;BME280;15682;56.742;38.866;2023-02-23T04:28:24;99420.0;;;-17.6;90.3
28456;BME280;15682;56.742;38.866;2023-02-23T04:30:22;99420.0;;;-17.6;90.3
28456;BME280;15682;56.742;38.866;2023-02-23T04:32:21;99420.0;;;-17.5;90.1
28456;BME280;15682;56.742;38.866;2023-02-23T04:34:21;99420.0;;;-17.5;90.1
28456;BME280;15682;56.742;38.866;2023-02-23T04:36:20;99420.0;;;-17.4;90.1
28456;BME280;15682;56.742;38.866;2023-02-23T04:38:20;99430.0;;;-17.4;89.6
28456;BME280;15682;56.742;38.866;2023-02-23T04:40:19;99430.0;;;-17.4;89.6
28456;BME280;15682;56.742;38.866;2023-02-23T04:42:19;99430.0;;;-17.4;89.4
28456;BME280;15682;56.742;38.866;2023-02-23T04:44:19;99430.0;;;-17.4;89.4
28456;BME280;15682;56.742;38.866;2023-02-23T04:46:18;99430.0;;;-17.4;89.4
28456;BME280;15682;56.742;38.866;2023-02-23T04:48:18;99430.0;;;-17.4;89.4
28456;BME280;15682;56.742;38.866;2023-02-23T04:50:18;99430.0;;;-17.4;89.4
28456;BME280;15682;56.742;38.866;2023-02-23T04:52:17;99430.0;;;-17.4;89.1
28456;BME280;15682;56.742;38.866;2023-02-23T04:54:16;99430.0;;;-17.4;89.1
28456;BME280;15682;56.742;38.866;2023-02-23T04:56:16;99430.0;;;-17.4;89.1
28456;BME280;15682;56.742;38.866;2023-02-23T04:58:15;99430.0;;;-17.4;89.1
28456;BME280;15682;56.742;38.866;2023-02-23T05:00:16;99430.0;;;-17.4;89.1
28456;BME280;15682;56.742;38.866;2023-02-23T05:02:14;99430.0;;;-17.3;89.1
28456;BME280;15682;56.742;38.866;2023-02-23T05:04:14;99440.0;;;-17.3;89.1
28456;BME280;15682;56.742;38.866;2023-02-23T05:06:14;99440.0;;;-17.3;89.1
28456;BME280;15682;56.742;38.866;2023-02-23T05:08:13;99440.0;;;-17.2;89.1
28456;BME280;15682;56.742;38.866;2023-02-23T05:10:13;99440.0;;;-17.2;89.1
28456;BME280;15682;56.742;38.866;2023-02-23T05:12:12;99440.0;;;-17.1;88.9
28456;BME280;15682;56.742;38.866;2023-02-23T05:14:12;99440.0;;;-17.1;88.9
28456;BME280;15682;56.742;38.866;2023-02-23T05:16:11;99440.0;;;-17.1;88.9
28456;BME280;15682;56.742;38.866;2023-02-23T05:18:11;99450.0;;;-17.1;88.9
28456;BME280;15682;56.742;38.866;2023-02-23T05:20:12;99460.0;;;-17.2;88.9
28456;BME280;15682;56.742;38.866;2023-02-23T05:22:10;99460.0;;;-17.0;89.2
28456;BME280;15682;56.742;38.866;2023-02-23T05:24:10;99460.0;;;-17.0;89.2
28456;BME280;15682;56.742;38.866;2023-02-23T05:26:11;99460.0;;;-17.1;88.6
28456;BME280;15682;56.742;38.866;2023-02-23T05:28:08;99460.0;;;-17.1;88.6
28456;BME280;15682;56.742;38.866;2023-02-23T05:30:09;99460.0;;;-17.1;88.6
28456;BME280;15682;56.742;38.866;2023-02-23T05:32:08;99460.0;;;-17.1;88.7
28456;BME280;15682;56.742;38.866;2023-02-23T05:34:07;99460.0;;;-17.1;88.7
28456;BME280;15682;56.742;38.866;2023-02-23T05:36:08;99460.0;;;-16.9;88.7
28456;BME280;15682;56.742;38.866;2023-02-23T05:38:06;99460.0;;;-16.9;88.7
28456;BME280;15682;56.742;38.866;2023-02-23T05:40:07;99460.0;;;-16.8;88.0
28456;BME280;15682;56.742;38.866;2023-02-23T05:42:05;99460.0;;;-16.8;88.1
28456;BME280;15682;56.742;38.866;2023-02-23T05:44:05;99460.0;;;-16.8;88.1
28456;BME280;15682;56.742;38.866;2023-02-23T05:46:05;99460.0;;;-16.8;88.1
28456;BME280;15682;56.742;38.866;2023-02-23T05:48:05;99460.0;;;-16.8;88.1
28456;BME280;15682;56.742;38.866;2023-02-23T05:50:05;99460.0;;;-16.8;88.1
28456;BME280;15682;56.742;38.866;2023-02-23T05:52:04;99460.0;;;-16.6;87.8
28456;BME280;15682;56.742;38.866;2023-02-23T05:54:03;99460.0;;;-16.6;87.8
28456;BME280;15682;56.742;38.866;2023-02-23T05:56:04;99460.0;;;-16.6;87.5
28456;BME280;15682;56.742;38.866;2023-02-23T05:58:02;99460.0;;;-16.6;87.5
28456;BME280;15682;56.742;38.866;2023-02-23T06:00:04;99470.0;;;-16.5;88.2
28456;BME280;15682;56.742;38.866;2023-02-23T06:02:01;99470.0;;;-16.5;88.1
28456;BME280;15682;56.742;38.866;2023-02-23T06:04:01;99470.0;;;-16.4;88.1
28456;BME280;15682;56.742;38.866;2023-02-23T06:06:00;99470.0;;;-16.4;88.1
28456;BME280;15682;56.742;38.866;2023-02-23T06:08:00;99470.0;;;-16.4;88.1
28456;BME280;15682;56.742;38.866;2023-02-23T06:09:59;99470.0;;;-16.3;88.1
28456;BME280;15682;56.742;38.866;2023-02-23T06:11:59;99470.0;;;-16.1;87.7
28456;BME280;15682;56.742;38.866;2023-02-23T06:13:59;99470.0;;;-16.1;87.7
28456;BME280;15682;56.742;38.866;2023-02-23T06:15:59;99470.0;;;-16.1;87.7
28456;BME280;15682;56.742;38.866;2023-02-23T06:17:58;99470.0;;;-15.9;87.7
28456;BME280;15682;56.742;38.866;2023-02-23T06:19:58;99470.0;;;-15.8;87.7
28456;BME280;15682;56.742;38.866;2023-02-23T06:21:57;99470.0;;;-15.7;87.2
28456;BME280;15682;56.742;38.866;2023-02-23T06:23:56;99470.0;;;-15.7;87.1
28456;BME280;15682;56.742;38.866;2023-02-23T06:25:56;99470.0;;;-15.4;87.1
28456;BME280;15682;56.742;38.866;2023-02-23T06:27:56;99470.0;;;-15.2;87.1
28456;BME280;15682;56.742;38.866;2023-02-23T06:29:55;99470.0;;;-15.2;86.4
28456;BME280;15682;56.742;38.866;2023-02-23T06:31:55;99480.0;;;-15.2;86.2
28456;BME280;15682;56.742;38.866;2023-02-23T06:33:55;99480.0;;;-15.1;86.2
28456;BME280;15682;56.742;38.866;2023-02-23T06:35:54;99480.0;;;-15.1;86.2
28456;BME280;15682;56.742;38.866;2023-02-23T06:37:54;99480.0;;;-15.1;86.2
28456;BME280;15682;56.742;38.866;2023-02-23T06:39:53;99480.0;;;-15.1;86.2
28456;BME280;15682;56.742;38.866;2023-02-23T06:41:53;99490.0;;;-15.2;87.1
28456;BME280;15682;56.742;38.866;2023-02-23T06:43:52;99490.0;;;-15.0;87.1
28456;BME280;15682;56.742;38.866;2023-02-23T06:45:52;99490.0;;;-15.0;87.1
28456;BME280;15682;56.742;38.866;2023-02-23T06:47:51;99490.0;;;-15.0;87.1
28456;BME280;15682;56.742;38.866;2023-02-23T06:49:51;99490.0;;;-14.8;87.1
28456;BME280;15682;56.742;38.866;2023-02-23T06:51:51;99490.0;;;-14.9;86.7
28456;BME280;15682;56.742;38.866;2023-02-23T06:53:51;99490.0;;;-14.9;86.7
28456;BME280;15682;56.742;38.866;2023-02-23T06:55:50;99490.0;;;-14.9;86.7
28456;BME280;15682;56.742;38.866;2023-02-23T06:57:50;99500.0;;;-14.7;86.7
28456;BME280;15682;56.742;38.866;2023-02-23T06:59:49;99500.0;;;-14.7;86.7
28456;BME280;15682;56.742;38.866;2023-02-23T07:01:49;99500.0;;;-14.6;86.4
28456;BME280;15682;56.742;38.866;2023-02-23T07:03:48;99500.0;;;-14.6;86.4
28456;BME280;15682;56.742;38.866;2023-02-23T07:05:48;99500.0;;;-14.4;86.4
28456;BME280;15682;56.742;38.866;2023-02-23T07:07:48;99500.0;;;-14.4;86.4
28456;BME280;15682;56.742;38.866;2023-02-23T07:09:47;99500.0;;;-14.4;86.4
28456;BME280;15682;56.742;38.866;2023-02-23T07:11:47;99500.0;;;-14.3;86.4
28456;BME280;15682;56.742;38.866;2023-02-23T07:13:46;99500.0;;;-14.3;86.4
28456;BME280;15682;56.742;38.866;2023-02-23T07:15:46;99500.0;;;-14.2;86.4
28456;BME280;15682;56.742;38.866;2023-02-23T07:17:46;99500.0;;;-14.2;86.0
28456;BME280;15682;56.742;38.866;2023-02-23T07:19:45;99500.0;;;-14.4;86.0
28456;BME280;15682;56.742;38.866;2023-02-23T07:21:45;99500.0;;;-14.1;86.3
28456;BME280;15682;56.742;38.866;2023-02-23T07:23:45;99500.0;;;-14.1;86.3
28456;BME280;15682;56.742;38.866;2023-02-23T07:25:44;99500.0;;;-14.1;86.3
28456;BME280;15682;56.742;38.866;2023-02-23T07:27:44;99500.0;;;-13.9;86.3
28456;BME280;15682;56.742;38.866;2023-02-23T07:29:43;99500.0;;;-13.9;86.3
28456;BME280;15682;56.742;38.866;2023-02-23T07:31:43;99500.0;;;-13.8;85.4
28456;BME280;15682;56.742;38.866;2023-02-23T07:33:43;99500.0;;;-13.7;85.4
28456;BME280;15682;56.742;38.866;2023-02-23T07:35:42;99500.0;;;-13.7;85.4
28456;BME280;15682;56.742;38.866;2023-02-23T07:37:42;99500.0;;;-13.7;85.4
28456;BME280;15682;56.742;38.866;2023-02-23T07:39:41;99500.0;;;-13.7;85.4
28456;BME280;15682;56.742;38.866;2023-02-23T07:41:41;99500.0;;;-13.6;85.7
28456;BME280;15682;56.742;38.866;2023-02-23T07:43:40;99500.0;;;-13.6;85.7
28456;BME280;15682;56.742;38.866;2023-02-23T07:45:40;99500.0;;;-13.4;85.7
28456;BME280;15682;56.742;38.866;2023-02-23T07:47:40;99500.0;;;-13.3;85.7
28456;BME280;15682;56.742;38.866;2023-02-23T07:49:39;99500.0;;;-13.3;84.9
28456;BME280;15682;56.742;38.866;2023-02-23T07:51:40;99500.0;;;-13.3;85.2
28456;BME280;15682;56.742;38.866;2023-02-23T07:53:39;99500.0;;;-13.1;85.2
28456;BME280;15682;56.742;38.866;2023-02-23T07:55:38;99500.0;;;-13.1;85.2
28456;BME280;15682;56.742;38.866;2023-02-23T07:57:38;99510.0;;;-13.1;85.2
28456;BME280;15682;56.742;38.866;2023-02-23T07:59:37;99510.0;;;-13.0;85.2
28456;BME280;15682;56.742;38.866;2023-02-23T08:01:37;99510.0;;;-13.0;84.9
28456;BME280;15682;56.742;38.866;2023-02-23T08:03:37;99510.0;;;-13.0;84.9
28456;BME280;15682;56.742;38.866;2023-02-23T08:05:36;99510.0;;;-12.8;84.9
28456;BME280;15682;56.742;38.866;2023-02-23T08:07:36;99510.0;;;-12.8;84.9
28456;BME280;15682;56.742;38.866;2023-02-23T08:09:36;99510.0;;;-12.8;84.9
28456;BME280;15682;56.742;38.866;2023-02-23T08:11:35;99510.0;;;-12.7;84.7
28456;BME280;15682;56.742;38.866;2023-02-23T08:13:35;99510.0;;;-12.7;84.7
28456;BME280;15682;56.742;38.866;2023-02-23T08:15:34;99510.0;;;-12.6;84.3
28456;BME280;15682;56.742;38.866;2023-02-23T08:17:34;99510.0;;;-12.6;84.3
28456;BME280;15682;56.742;38.866;2023-02-23T08:19:34;99510.0;;;-12.6;84.3
28456;BME280;15682;56.742;38.866;2023-02-23T08:21:33;99510.0;;;-12.5;84.2
28456;BME280;15682;56.742;38.866;2023-02-23T08:23:33;99510.0;;;-12.5;84.2
28456;BME280;15682;56.742;38.866;2023-02-23T08:25:34;99510.0;;;-12.5;84.2
28456;BME280;15682;56.742;38.866;2023-02-23T08:27:33;99510.0;;;-12.6;84.2
28456;BME280;15682;56.742;38.866;2023-02-23T08:29:32;99510.0;;;-12.4;84.2
28456;BME280;15682;56.742;38.866;2023-02-23T08:31:32;99510.0;;;-12.3;84.2
28456;BME280;15682;56.742;38.866;2023-02-23T08:33:31;99510.0;;;-12.3;84.2
28456;BME280;15682;56.742;38.866;2023-02-23T08:35:31;99510.0;;;-12.3;84.2
28456;BME280;15682;56.742;38.866;2023-02-23T08:37:30;99510.0;;;-12.2;84.2
28456;BME280;15682;56.742;38.866;2023-02-23T08:39:30;99510.0;;;-12.2;83.8
28456;BME280;15682;56.742;38.866;2023-02-23T08:41:30;99510.0;;;-12.1;83.7
28456;BME280;15682;56.742;38.866;2023-02-23T08:43:30;99510.0;;;-12.1;83.7
28456;BME280;15682;56.742;38.866;2023-02-23T08:45:29;99510.0;;;-12.0;83.7
28456;BME280;15682;56.742;38.866;2023-02-23T08:47:29;99520.0;;;-12.0;83.7
28456;BME280;15682;56.742;38.866;2023-02-23T08:49:28;99520.0;;;-12.0;83.7
28456;BME280;15682;56.742;38.866;2023-02-23T08:51:28;99520.0;;;-12.0;83.4
28456;BME280;15682;56.742;38.866;2023-02-23T08:53:28;99520.0;;;-12.0;83.4
28456;BME280;15682;56.742;38.866;2023-02-23T08:55:27;99520.0;;;-12.0;83.4
28456;BME280;15682;56.742;38.866;2023-02-23T08:57:27;99520.0;;;-11.9;83.4
28456;BME280;15682;56.742;38.866;2023-02-23T08:59:27;99520.0;;;-11.9;84.0
28456;BME280;15682;56.742;38.866;2023-02-23T09:01:26;99520.0;;;-11.8;83.9
28456;BME280;15682;56.742;38.866;2023-02-23T09:03:27;99520.0;;;-11.7;83.4
28456;BME280;15682;56.742;38.866;2023-02-23T09:05:25;99520.0;;;-11.7;83.4
28456;BME280;15682;56.742;38.866;2023-02-23T09:07:25;99520.0;;;-11.7;83.4
28456;BME280;15682;56.742;38.866;2023-02-23T09:09:25;99520.0;;;-11.7;83.4
28456;BME280;15682;56.742;38.866;2023-02-23T09:11:25;99520.0;;;-11.7;83.4
28456;BME280;15682;56.742;38.866;2023-02-23T09:13:24;99520.0;;;-11.6;83.3
28456;BME280;15682;56.742;38.866;2023-02-23T09:15:24;99520.0;;;-11.5;83.3
28456;BME280;15682;56.742;38.866;2023-02-23T09:17:23;99520.0;;;-11.5;83.3
28456;BME280;15682;56.742;38.866;2023-02-23T09:19:23;99520.0;;;-11.5;83.3
28456;BME280;15682;56.742;38.866;2023-02-23T09:21:23;99520.0;;;-11.4;83.3
28456;BME280;15682;56.742;38.866;2023-02-23T09:23:25;99520.0;;;-11.4;83.3
28456;BME280;15682;56.742;38.866;2023-02-23T09:25:23;99520.0;;;-11.3;83.3
28456;BME280;15682;56.742;38.866;2023-02-23T09:27:22;99520.0;;;-11.3;83.3
28456;BME280;15682;56.742;38.866;2023-02-23T09:29:21;99520.0;;;-11.2;83.3
28456;BME280;15682;56.742;38.866;2023-02-23T09:31:22;99520.0;;;-11.2;83.3
28456;BME280;15682;56.742;38.866;2023-02-23T09:33:21;99520.0;;;-11.2;82.9
28456;BME280;15682;56.742;38.866;2023-02-23T09:35:23;99510.0;;;-11.0;82.9
28456;BME280;15682;56.742;38.866;2023-02-23T09:37:20;99500.0;;;-11.0;82.8
28456;BME280;15682;56.742;38.866;2023-02-23T09:39:20;99490.0;;;-11.0;82.8
28456;BME280;15682;56.742;38.866;2023-02-23T09:41:43;99490.0;;;-11.0;82.3
28456;BME280;15682;56.742;38.866;2023-02-23T09:43:22;99490.0;;;-10.9;82.3
28456;BME280;15682;56.742;38.866;2023-02-23T09:45:25;99490.0;;;-10.9;82.3
28456;BME280;15682;56.742;38.866;2023-02-23T09:47:30;99490.0;;;-10.7;82.3
28456;BME280;15682;56.742;38.866;2023-02-23T09:49:22;99490.0;;;-10.7;82.3
28456;BME280;15682;56.742;38.866;2023-02-23T09:51:19;99490.0;;;-10.7;82.3
28456;BME280;15682;56.742;38.866;2023-02-23T09:53:28;99490.0;;;-10.7;81.8
28456;BME280;15682;56.742;38.866;2023-02-23T09:55:17;99490.0;;;-10.7;81.8
28456;BME280;15682;56.742;38.866;2023-02-23T09:57:20;99490.0;;;-10.6;81.8
28456;BME280;15682;56.742;38.866;2023-02-23T09:59:20;99490.0;;;-10.5;81.8
28456;BME280;15682;56.742;38.866;2023-02-23T10:01:28;99490.0;;;-10.5;81.8
28456;BME280;15682;56.742;38.866;2023-02-23T10:03:19;99490.0;;;-10.6;81.8
28456;BME280;15682;56.742;38.866;2023-02-23T10:05:16;99490.0;;;-10.6;82.3
28456;BME280;15682;56.742;38.866;2023-02-23T10:07:20;99490.0;;;-10.5;82.3
28456;BME280;15682;56.742;38.866;2023-02-23T10:09:20;99490.0;;;-10.3;82.3
28456;BME280;15682;56.742;38.866;2023-02-23T10:11:23;99490.0;;;-10.2;81.8
28456;BME280;15682;56.742;38.866;2023-02-23T10:13:20;99490.0;;;-10.2;81.8
28456;BME280;15682;56.742;38.866;2023-02-23T10:15:22;99490.0;;;-10.1;81.8
28456;BME280;15682;56.742;38.866;2023-02-23T10:17:21;99490.0;;;-10.1;81.8
28456;BME280;15682;56.742;38.866;2023-02-23T10:19:21;99480.0;;;-10.1;81.8
28456;BME280;15682;56.742;38.866;2023-02-23T10:21:15;99480.0;;;-10.1;81.8
28456;BME280;15682;56.742;38.866;2023-02-23T10:23:22;99470.0;;;-10.1;81.9
28456;BME280;15682;56.742;38.866;2023-02-23T10:25:14;99470.0;;;-10.1;81.9
28456;BME280;15682;56.742;38.866;2023-02-23T10:27:15;99470.0;;;-10.0;81.9
28456;BME280;15682;56.742;38.866;2023-02-23T10:29:21;99470.0;;;-10.0;81.9
28456;BME280;15682;56.742;38.866;2023-02-23T10:31:25;99470.0;;;-9.9;81.9
28456;BME280;15682;56.742;38.866;2023-02-23T10:33:14;99470.0;;;-9.7;81.1
28456;BME280;15682;56.742;38.866;2023-02-23T10:35:13;99470.0;;;-9.7;81.1
28456;BME280;15682;56.742;38.866;2023-02-23T10:37:18;99470.0;;;-9.7;81.1
28456;BME280;15682;56.742;38.866;2023-02-23T10:39:12;99470.0;;;-9.7;81.1
28456;BME280;15682;56.742;38.866;2023-02-23T10:41:11;99470.0;;;-9.6;81.7
28456;BME280;15682;56.742;38.866;2023-02-23T10:43:10;99470.0;;;-9.5;81.7
28456;BME280;15682;56.742;38.866;2023-02-23T10:45:12;99470.0;;;-9.5;81.7
28456;BME280;15682;56.742;38.866;2023-02-23T10:47:14;99470.0;;;-9.5;81.7